sensor_id;sensor_type;location;lat;lon;timestamp;pressure;altitude;pressure_sealevel;temperature;humidity
68197;BME280;55019;49.382;11.358;2023-03-04T00:01:38;96999.16;;;-0.48;76.03
68197;BME280;55019;49.382;11.358;2023-03-04T00:04:04;96986.69;;;-0.52;76.29
68197;BME280;55019;49.382;11.358;2023-03-04T00:06:30;97002.31;;;-0.44;75.71
68197;BME280;55019;49.382;11.358;2023-03-04T00:08:56;97001.53;;;-0.60;76.81
68197;BME280;55019;49.382;11.358;2023-03-04T00:11:22;97007.25;;;-0.57;76.94
68197;BME280;55019;49.382;11.358;2023-03-04T00:13:48;97003.53;;;-0.65;76.96
68197;BME280;55019;49.382;11.358;2023-03-04T00:16:14;97003.50;;;-0.50;77.03
68197;BME280;55019;49.382;11.358;2023-03-04T00:18:40;97001.44;;;-0.59;77.28
68197;BME280;55019;49.382;11.358;2023-03-04T00:21:05;97003.81;;;-0.56;76.94
68197;BME280;55019;49.382;11.358;2023-03-04T00:23:31;97001.38;;;-0.57;77.03
68197;BME280;55019;49.382;11.358;2023-03-04T00:25:57;97004.31;;;-0.65;78.59
68197;BME280;55019;49.382;11.358;2023-03-04T00:28:23;97013.47;;;-0.47;77.79
68197;BME280;55019;49.382;11.358;2023-03-04T00:30:49;97011.34;;;-0.25;77.44
68197;BME280;55019;49.382;11.358;2023-03-04T00:33:14;97012.78;;;-0.35;77.66
68197;BME280;55019;49.382;11.358;2023-03-04T00:35:40;97010.47;;;-0.39;77.56
68197;BME280;55019;49.382;11.358;2023-03-04T00:38:06;97005.88;;;-0.33;77.35
68197;BME280;55019;49.382;11.358;2023-03-04T00:40:32;97002.31;;;-0.44;77.30
68197;BME280;55019;49.382;11.358;2023-03-04T00:42:58;97007.91;;;-0.53;78.06
68197;BME280;55019;49.382;11.358;2023-03-04T00:45:23;97000.09;;;-0.64;78.46
68197;BME280;55019;49.382;11.358;2023-03-04T00:47:50;96998.00;;;-0.58;78.50
68197;BME280;55019;49.382;11.358;2023-03-04T00:50:16;97001.75;;;-0.79;78.81
68197;BME280;55019;49.382;11.358;2023-03-04T00:52:41;97003.34;;;-0.62;78.68
68197;BME280;55019;49.382;11.358;2023-03-04T00:55:08;97003.88;;;-0.71;79.20
68197;BME280;55019;49.382;11.358;2023-03-04T00:57:33;96995.19;;;-0.67;78.77
68197;BME280;55019;49.382;11.358;2023-03-04T00:59:59;97000.09;;;-0.64;78.89
68197;BME280;55019;49.382;11.358;2023-03-04T01:02:25;96989.63;;;-0.44;78.03
68197;BME280;55019;49.382;11.358;2023-03-04T01:04:52;96986.16;;;-0.57;78.90
68197;BME280;55019;49.382;11.358;2023-03-04T01:07:17;96984.16;;;-0.52;78.21
68197;BME280;55019;49.382;11.358;2023-03-04T01:09:43;96982.88;;;-0.59;78.18
68197;BME280;55019;49.382;11.358;2023-03-04T01:12:09;96979.31;;;-0.86;78.64
68197;BME280;55019;49.382;11.358;2023-03-04T01:14:36;96982.31;;;-0.94;79.92
68197;BME280;55019;49.382;11.358;2023-03-04T01:17:02;96984.84;;;-0.94;79.89
68197;BME280;55019;49.382;11.358;2023-03-04T01:19:27;96985.97;;;-0.99;80.18
68197;BME280;55019;49.382;11.358;2023-03-04T01:21:53;96983.28;;;-0.96;80.75
68197;BME280;55019;49.382;11.358;2023-03-04T01:24:21;96984.34;;;-1.00;81.44
68197;BME280;55019;49.382;11.358;2023-03-04T01:26:46;96980.72;;;-0.96;81.00
68197;BME280;55019;49.382;11.358;2023-03-04T01:29:13;96975.94;;;-1.01;81.56
68197;BME280;55019;49.382;11.358;2023-03-04T01:31:39;96975.78;;;-1.13;81.48
68197;BME280;55019;49.382;11.358;2023-03-04T01:34:04;96980.84;;;-0.98;81.57
68197;BME280;55019;49.382;11.358;2023-03-04T01:36:30;96976.34;;;-1.24;82.94
68197;BME280;55019;49.382;11.358;2023-03-04T01:38:56;96980.19;;;-1.32;83.14
68197;BME280;55019;49.382;11.358;2023-03-04T01:41:24;96977.25;;;-1.09;82.59
68197;BME280;55019;49.382;11.358;2023-03-04T01:43:51;96977.41;;;-1.12;82.25
68197;BME280;55019;49.382;11.358;2023-03-04T01:46:16;96969.13;;;-1.00;81.78
68197;BME280;55019;49.382;11.358;2023-03-04T01:48:43;96963.78;;;-1.25;82.63
68197;BME280;55019;49.382;11.358;2023-03-04T01:51:14;96964.66;;;-1.26;83.34
68197;BME280;55019;49.382;11.358;2023-03-04T01:53:42;96976.69;;;-1.14;81.97
68197;BME280;55019;49.382;11.358;2023-03-04T01:56:22;96977.06;;;-1.22;82.14
68197;BME280;55019;49.382;11.358;2023-03-04T01:59:16;96988.19;;;-1.09;81.62
68197;BME280;55019;49.382;11.358;2023-03-04T02:01:49;96977.06;;;-1.06;81.30
68197;BME280;55019;49.382;11.358;2023-03-04T02:04:41;96992.63;;;-1.28;82.24
68197;BME280;55019;49.382;11.358;2023-03-04T02:07:07;96984.19;;;-1.28;81.52
68197;BME280;55019;49.382;11.358;2023-03-04T02:09:33;96980.91;;;-1.30;81.84
68197;BME280;55019;49.382;11.358;2023-03-04T02:12:00;96972.50;;;-1.31;81.77
68197;BME280;55019;49.382;11.358;2023-03-04T02:14:27;96973.91;;;-1.41;82.22
68197;BME280;55019;49.382;11.358;2023-03-04T02:16:52;96968.09;;;-1.42;82.14
68197;BME280;55019;49.382;11.358;2023-03-04T02:21:50;96957.78;;;-1.55;82.94
68197;BME280;55019;49.382;11.358;2023-03-04T02:24:24;96965.63;;;-1.44;82.86
68197;BME280;55019;49.382;11.358;2023-03-04T02:26:52;96962.03;;;-1.55;82.56
68197;BME280;55019;49.382;11.358;2023-03-04T02:29:17;96954.75;;;-1.46;82.75
68197;BME280;55019;49.382;11.358;2023-03-04T02:31:46;96961.63;;;-1.48;82.69
68197;BME280;55019;49.382;11.358;2023-03-04T02:34:20;96957.63;;;-1.52;83.28
68197;BME280;55019;49.382;11.358;2023-03-04T02:36:47;96952.22;;;-1.61;83.68
68197;BME280;55019;49.382;11.358;2023-03-04T02:39:24;96951.41;;;-1.62;83.29
68197;BME280;55019;49.382;11.358;2023-03-04T02:41:53;96945.69;;;-1.65;83.60
68197;BME280;55019;49.382;11.358;2023-03-04T02:44:23;96943.41;;;-1.70;83.81
68197;BME280;55019;49.382;11.358;2023-03-04T02:46:51;96940.59;;;-1.81;84.00
68197;BME280;55019;49.382;11.358;2023-03-04T02:49:18;96945.97;;;-1.87;84.13
68197;BME280;55019;49.382;11.358;2023-03-04T02:51:44;96932.34;;;-1.84;84.14
68197;BME280;55019;49.382;11.358;2023-03-04T02:54:18;96934.88;;;-1.84;83.38
68197;BME280;55019;49.382;11.358;2023-03-04T02:56:46;96937.66;;;-1.73;83.15
68197;BME280;55019;49.382;11.358;2023-03-04T02:59:13;96926.56;;;-1.71;83.28
68197;BME280;55019;49.382;11.358;2023-03-04T03:01:39;96930.06;;;-1.73;83.25
68197;BME280;55019;49.382;11.358;2023-03-04T03:04:05;96927.53;;;-1.73;83.26
68197;BME280;55019;49.382;11.358;2023-03-04T03:06:31;96924.66;;;-1.83;84.00
68197;BME280;55019;49.382;11.358;2023-03-04T03:08:56;96926.34;;;-1.99;84.55
68197;BME280;55019;49.382;11.358;2023-03-04T03:11:22;96926.19;;;-1.96;84.92
68197;BME280;55019;49.382;11.358;2023-03-04T03:13:48;96931.75;;;-2.05;84.92
68197;BME280;55019;49.382;11.358;2023-03-04T03:16:13;96921.19;;;-2.13;85.84
68197;BME280;55019;49.382;11.358;2023-03-04T03:18:39;96926.50;;;-2.02;85.62
68197;BME280;55019;49.382;11.358;2023-03-04T03:21:06;96925.53;;;-2.15;85.50
68197;BME280;55019;49.382;11.358;2023-03-04T03:23:32;96930.41;;;-2.12;85.91
68197;BME280;55019;49.382;11.358;2023-03-04T03:25:58;96924.34;;;-2.25;86.07
68197;BME280;55019;49.382;11.358;2023-03-04T03:28:26;96930.06;;;-2.21;86.07
68197;BME280;55019;49.382;11.358;2023-03-04T03:30:52;96933.38;;;-2.04;85.52
68197;BME280;55019;49.382;11.358;2023-03-04T03:33:18;96930.09;;;-2.06;85.42
68197;BME280;55019;49.382;11.358;2023-03-04T03:35:44;96939.22;;;-2.19;85.46
68197;BME280;55019;49.382;11.358;2023-03-04T03:38:10;96936.13;;;-2.24;86.25
68197;BME280;55019;49.382;11.358;2023-03-04T03:40:36;96935.97;;;-2.21;85.63
68197;BME280;55019;49.382;11.358;2023-03-04T03:43:02;96938.34;;;-2.18;85.95
68197;BME280;55019;49.382;11.358;2023-03-04T03:48:14;96932.22;;;-2.14;86.04
68197;BME280;55019;49.382;11.358;2023-03-04T03:50:40;96935.44;;;-2.27;86.04
68197;BME280;55019;49.382;11.358;2023-03-04T03:53:06;96943.50;;;-2.04;86.45
68197;BME280;55019;49.382;11.358;2023-03-04T03:55:31;96930.47;;;-2.29;86.92
68197;BME280;55019;49.382;11.358;2023-03-04T03:57:57;96934.13;;;-2.34;88.10
68197;BME280;55019;49.382;11.358;2023-03-04T04:00:23;96920.94;;;-2.41;88.56
68197;BME280;55019;49.382;11.358;2023-03-04T04:02:48;96927.88;;;-2.44;88.40
68197;BME280;55019;49.382;11.358;2023-03-04T04:05:14;96931.53;;;-2.50;89.06
68197;BME280;55019;49.382;11.358;2023-03-04T04:07:41;96937.75;;;-2.23;88.04
68197;BME280;55019;49.382;11.358;2023-03-04T04:10:07;96931.78;;;-2.54;89.68
68197;BME280;55019;49.382;11.358;2023-03-04T04:12:33;96937.09;;;-2.60;90.14
68197;BME280;55019;49.382;11.358;2023-03-04T04:14:59;96937.31;;;-2.82;91.10
68197;BME280;55019;49.382;11.358;2023-03-04T04:17:24;96938.69;;;-2.75;91.74
68197;BME280;55019;49.382;11.358;2023-03-04T04:19:50;96943.88;;;-2.61;90.71
68197;BME280;55019;49.382;11.358;2023-03-04T04:22:18;96940.84;;;-2.67;90.69
68197;BME280;55019;49.382;11.358;2023-03-04T04:24:45;96944.78;;;-2.62;91.50
68197;BME280;55019;49.382;11.358;2023-03-04T04:27:11;96952.50;;;-2.82;90.89
68197;BME280;55019;49.382;11.358;2023-03-04T04:29:37;96950.22;;;-3.03;92.17
68197;BME280;55019;49.382;11.358;2023-03-04T04:32:03;96956.69;;;-2.81;92.68
68197;BME280;55019;49.382;11.358;2023-03-04T04:34:29;96955.41;;;-3.06;92.99
68197;BME280;55019;49.382;11.358;2023-03-04T04:36:54;96965.44;;;-2.88;92.08
68197;BME280;55019;49.382;11.358;2023-03-04T04:39:20;96963.78;;;-3.05;93.06
68197;BME280;55019;49.382;11.358;2023-03-04T04:41:47;96963.97;;;-3.27;93.79
68197;BME280;55019;49.382;11.358;2023-03-04T04:44:13;96967.53;;;-3.31;94.27
68197;BME280;55019;49.382;11.358;2023-03-04T04:46:40;96969.50;;;-3.37;94.97
68197;BME280;55019;49.382;11.358;2023-03-04T04:49:06;96968.97;;;-3.25;95.15
68197;BME280;55019;49.382;11.358;2023-03-04T04:51:33;96970.91;;;-3.13;95.21
68197;BME280;55019;49.382;11.358;2023-03-04T04:54:00;96966.81;;;-3.16;95.23
68197;BME280;55019;49.382;11.358;2023-03-04T04:56:27;96965.97;;;-2.98;95.12
68197;BME280;55019;49.382;11.358;2023-03-04T04:58:55;96963.34;;;-2.96;95.46
68197;BME280;55019;49.382;11.358;2023-03-04T05:01:22;96970.59;;;-2.89;95.48
68197;BME280;55019;49.382;11.358;2023-03-04T05:03:48;96966.19;;;-2.52;94.21
68197;BME280;55019;49.382;11.358;2023-03-04T05:06:15;96966.19;;;-2.52;93.61
68197;BME280;55019;49.382;11.358;2023-03-04T05:08:41;96968.88;;;-2.38;93.36
68197;BME280;55019;49.382;11.358;2023-03-04T05:11:07;96964.25;;;-2.47;93.51
68197;BME280;55019;49.382;11.358;2023-03-04T05:13:33;96960.28;;;-2.18;93.13
68197;BME280;55019;49.382;11.358;2023-03-04T05:15:59;96965.13;;;-2.31;92.54
68197;BME280;55019;49.382;11.358;2023-03-04T05:18:25;96971.69;;;-2.44;94.09
68197;BME280;55019;49.382;11.358;2023-03-04T05:20:58;96974.81;;;-2.22;93.45
68197;BME280;55019;49.382;11.358;2023-03-04T05:23:26;96977.19;;;-2.19;93.08
68197;BME280;55019;49.382;11.358;2023-03-04T05:25:52;96972.59;;;-2.45;92.57
68197;BME280;55019;49.382;11.358;2023-03-04T05:28:18;96976.41;;;-2.36;93.74
68197;BME280;55019;49.382;11.358;2023-03-04T05:30:45;96975.69;;;-2.06;92.75
68197;BME280;55019;49.382;11.358;2023-03-04T05:33:12;96977.09;;;-2.17;93.16
68197;BME280;55019;49.382;11.358;2023-03-04T05:35:39;96977.19;;;-2.19;93.52
68197;BME280;55019;49.382;11.358;2023-03-04T05:38:08;96978.06;;;-2.03;93.08
68197;BME280;55019;49.382;11.358;2023-03-04T05:40:34;96979.31;;;-1.94;92.48
68197;BME280;55019;49.382;11.358;2023-03-04T05:43:00;96979.41;;;-2.13;92.83
68197;BME280;55019;49.382;11.358;2023-03-04T05:45:26;96978.00;;;-2.01;93.54
68197;BME280;55019;49.382;11.358;2023-03-04T05:47:52;96980.06;;;-2.09;93.52
68197;BME280;55019;49.382;11.358;2023-03-04T05:50:19;96987.38;;;-2.20;93.57
68197;BME280;55019;49.382;11.358;2023-03-04T05:52:45;96979.88;;;-2.22;94.25
68197;BME280;55019;49.382;11.358;2023-03-04T05:55:11;96981.06;;;-2.46;95.63
68197;BME280;55019;49.382;11.358;2023-03-04T05:57:37;96981.84;;;-2.11;94.88
68197;BME280;55019;49.382;11.358;2023-03-04T06:00:05;96984.75;;;-2.02;94.42
68197;BME280;55019;49.382;11.358;2023-03-04T06:02:39;96988.97;;;-1.85;93.29
68197;BME280;55019;49.382;11.358;2023-03-04T06:05:05;96980.75;;;-2.06;94.56
68197;BME280;55019;49.382;11.358;2023-03-04T06:07:31;96982.69;;;-2.11;94.77
68197;BME280;55019;49.382;11.358;2023-03-04T06:09:57;96987.00;;;-2.13;94.92
68197;BME280;55019;49.382;11.358;2023-03-04T06:12:23;96984.84;;;-2.03;95.04
68197;BME280;55019;49.382;11.358;2023-03-04T06:14:49;96988.84;;;-1.99;94.69
68197;BME280;55019;49.382;11.358;2023-03-04T06:17:14;96993.97;;;-2.01;94.85
68197;BME280;55019;49.382;11.358;2023-03-04T06:19:40;96995.00;;;-1.88;94.47
68197;BME280;55019;49.382;11.358;2023-03-04T06:22:07;96994.03;;;-2.18;95.75
68197;BME280;55019;49.382;11.358;2023-03-04T06:24:33;96995.19;;;-2.08;95.73
68197;BME280;55019;49.382;11.358;2023-03-04T06:26:59;96998.09;;;-1.98;96.10
68197;BME280;55019;49.382;11.358;2023-03-04T06:29:24;96999.41;;;-1.91;94.95
68197;BME280;55019;49.382;11.358;2023-03-04T06:31:50;96996.81;;;-2.07;95.05
68197;BME280;55019;49.382;11.358;2023-03-04T06:34:16;97006.69;;;-2.18;96.74
68197;BME280;55019;49.382;11.358;2023-03-04T06:36:41;97003.09;;;-2.14;96.89
68197;BME280;55019;49.382;11.358;2023-03-04T06:39:08;97006.69;;;-2.18;97.29
68197;BME280;55019;49.382;11.358;2023-03-04T06:41:34;97009.03;;;-2.32;97.83
68197;BME280;55019;49.382;11.358;2023-03-04T06:44:00;97010.63;;;-2.29;98.74
68197;BME280;55019;49.382;11.358;2023-03-04T06:46:26;97009.03;;;-2.32;99.19
68197;BME280;55019;49.382;11.358;2023-03-04T06:48:52;97013.84;;;-2.26;98.70
68197;BME280;55019;49.382;11.358;2023-03-04T06:51:17;97015.31;;;-2.22;98.81
68197;BME280;55019;49.382;11.358;2023-03-04T06:53:44;97028.56;;;-2.51;99.37
68197;BME280;55019;49.382;11.358;2023-03-04T06:56:11;97023.66;;;-2.54;100.00
68197;BME280;55019;49.382;11.358;2023-03-04T06:58:38;97037.06;;;-2.18;100.00
68197;BME280;55019;49.382;11.358;2023-03-04T07:01:21;97042.56;;;-2.10;99.21
68197;BME280;55019;49.382;11.358;2023-03-04T07:03:49;97030.78;;;-2.11;99.13
68197;BME280;55019;49.382;11.358;2023-03-04T07:06:18;97036.50;;;-2.07;99.33
68197;BME280;55019;49.382;11.358;2023-03-04T07:08:45;97044.09;;;-2.07;98.75
68197;BME280;55019;49.382;11.358;2023-03-04T07:11:11;97036.91;;;-2.15;99.21
68197;BME280;55019;49.382;11.358;2023-03-04T07:13:37;97038.69;;;-2.17;99.19
68197;BME280;55019;49.382;11.358;2023-03-04T07:16:04;97036.91;;;-2.15;99.17
68197;BME280;55019;49.382;11.358;2023-03-04T07:18:30;97043.66;;;-1.98;98.65
68197;BME280;55019;49.382;11.358;2023-03-04T07:20:56;97045.22;;;-1.96;98.49
68197;BME280;55019;49.382;11.358;2023-03-04T07:23:22;97037.06;;;-2.18;99.07
68197;BME280;55019;49.382;11.358;2023-03-04T07:25:48;97038.38;;;-2.11;99.28
68197;BME280;55019;49.382;11.358;2023-03-04T07:28:15;97044.34;;;-2.12;99.04
68197;BME280;55019;49.382;11.358;2023-03-04T07:30:40;97047.69;;;-2.28;99.50
68197;BME280;55019;49.382;11.358;2023-03-04T07:33:06;97051.06;;;-2.28;100.00
68197;BME280;55019;49.382;11.358;2023-03-04T07:35:32;97043.47;;;-2.28;100.00
68197;BME280;55019;49.382;11.358;2023-03-04T07:37:58;97041.97;;;-2.15;100.00
68197;BME280;55019;49.382;11.358;2023-03-04T07:40:23;97045.31;;;-1.97;99.65
68197;BME280;55019;49.382;11.358;2023-03-04T07:42:51;97053.06;;;-1.85;99.15
68197;BME280;55019;49.382;11.358;2023-03-04T07:45:17;97054.22;;;-1.90;98.68
68197;BME280;55019;49.382;11.358;2023-03-04T07:47:42;97051.75;;;-1.75;98.47
68197;BME280;55019;49.382;11.358;2023-03-04T07:50:09;97062.53;;;-1.71;97.90
68197;BME280;55019;49.382;11.358;2023-03-04T07:52:40;97061.59;;;-2.03;98.58
68197;BME280;55019;49.382;11.358;2023-03-04T07:55:07;97072.00;;;-1.75;98.25
68197;BME280;55019;49.382;11.358;2023-03-04T07:57:33;97062.78;;;-1.76;97.24
68197;BME280;55019;49.382;11.358;2023-03-04T07:59:58;97059.66;;;-1.98;98.08
68197;BME280;55019;49.382;11.358;2023-03-04T08:02:24;97062.25;;;-1.82;97.97
68197;BME280;55019;49.382;11.358;2023-03-04T08:04:50;97065.47;;;-1.63;97.09
68197;BME280;55019;49.382;11.358;2023-03-04T08:07:15;97059.03;;;-1.69;97.29
68197;BME280;55019;49.382;11.358;2023-03-04T08:09:41;97060.97;;;-1.42;97.48
68197;BME280;55019;49.382;11.358;2023-03-04T08:12:07;97062.09;;;-1.47;96.10
68197;BME280;55019;49.382;11.358;2023-03-04T08:14:33;97067.16;;;-1.47;95.72
68197;BME280;55019;49.382;11.358;2023-03-04T08:16:59;97065.53;;;-1.48;95.72
68197;BME280;55019;49.382;11.358;2023-03-04T08:19:24;97062.25;;;-1.50;96.51
68197;BME280;55019;49.382;11.358;2023-03-04T08:21:50;97064.94;;;-1.53;95.62
68197;BME280;55019;49.382;11.358;2023-03-04T08:24:16;97063.41;;;-1.40;95.14
68197;BME280;55019;49.382;11.358;2023-03-04T08:26:45;97064.03;;;-1.52;95.94
68197;BME280;55019;49.382;11.358;2023-03-04T08:29:17;97068.91;;;-1.47;95.39
68197;BME280;55019;49.382;11.358;2023-03-04T08:31:44;97062.75;;;-1.43;95.15
68197;BME280;55019;49.382;11.358;2023-03-04T08:34:11;97062.34;;;-1.36;95.34
68197;BME280;55019;49.382;11.358;2023-03-04T08:36:40;97058.19;;;-1.22;95.76
68197;BME280;55019;49.382;11.358;2023-03-04T08:39:07;97068.34;;;-1.06;93.77
68197;BME280;55019;49.382;11.358;2023-03-04T08:41:33;97056.59;;;-0.92;93.83
68197;BME280;55019;49.382;11.358;2023-03-04T08:43:59;97062.94;;;-1.16;93.72
68197;BME280;55019;49.382;11.358;2023-03-04T08:46:25;97055.59;;;-0.89;93.34
68197;BME280;55019;49.382;11.358;2023-03-04T08:48:50;97054.28;;;-0.96;92.54
68197;BME280;55019;49.382;11.358;2023-03-04T08:51:16;97055.41;;;-0.86;92.85
68197;BME280;55019;49.382;11.358;2023-03-04T08:53:43;97041.38;;;-1.07;92.50
68197;BME280;55019;49.382;11.358;2023-03-04T08:56:09;97048.88;;;-1.06;94.18
68197;BME280;55019;49.382;11.358;2023-03-04T08:58:35;97059.03;;;-0.90;92.83
68197;BME280;55019;49.382;11.358;2023-03-04T09:01:01;97053.94;;;-1.06;93.27
68197;BME280;55019;49.382;11.358;2023-03-04T09:03:27;97064.50;;;-0.82;93.34
68197;BME280;55019;49.382;11.358;2023-03-04T09:05:53;97058.84;;;-0.87;92.73
68197;BME280;55019;49.382;11.358;2023-03-04T09:08:19;97062.63;;;-0.63;92.48
68197;BME280;55019;49.382;11.358;2023-03-04T09:10:45;97059.63;;;-0.40;91.39
68197;BME280;55019;49.382;11.358;2023-03-04T09:13:11;97063.34;;;-0.16;89.34
68197;BME280;55019;49.382;11.358;2023-03-04T09:15:47;97062.59;;;-0.18;89.51
68197;BME280;55019;49.382;11.358;2023-03-04T09:18:14;97061.47;;;0.01;89.01
68197;BME280;55019;49.382;11.358;2023-03-04T09:20:40;97069.25;;;-0.31;89.20
68197;BME280;55019;49.382;11.358;2023-03-04T09:23:06;97068.34;;;-0.30;89.69
68197;BME280;55019;49.382;11.358;2023-03-04T09:25:35;97068.88;;;-0.39;90.34
68197;BME280;55019;49.382;11.358;2023-03-04T09:28:01;97065.94;;;-0.18;89.22
68197;BME280;55019;49.382;11.358;2023-03-04T09:30:27;97073.31;;;-0.13;88.87
68197;BME280;55019;49.382;11.358;2023-03-04T09:32:53;97059.38;;;-0.36;88.74
68197;BME280;55019;49.382;11.358;2023-03-04T09:35:18;97071.56;;;-0.27;89.56
68197;BME280;55019;49.382;11.358;2023-03-04T09:37:44;97054.19;;;-0.34;89.31
68197;BME280;55019;49.382;11.358;2023-03-04T09:40:20;97060.63;;;-0.13;88.75
68197;BME280;55019;49.382;11.358;2023-03-04T09:42:49;97060.81;;;-0.03;88.59
68197;BME280;55019;49.382;11.358;2023-03-04T09:45:21;97067.13;;;-0.23;88.48
68197;BME280;55019;49.382;11.358;2023-03-04T09:47:51;97068.09;;;0.17;87.87
68197;BME280;55019;49.382;11.358;2023-03-04T09:50:20;97064.66;;;0.18;87.19
68197;BME280;55019;49.382;11.358;2023-03-04T09:52:56;97066.28;;;0.05;87.67
68197;BME280;55019;49.382;11.358;2023-03-04T09:55:41;97074.69;;;0.35;86.32
68197;BME280;55019;49.382;11.358;2023-03-04T09:58:37;97066.22;;;0.35;86.51
68197;BME280;55019;49.382;11.358;2023-03-04T10:01:19;97064.88;;;0.43;86.20
68197;BME280;55019;49.382;11.358;2023-03-04T10:06:18;97071.41;;;0.33;86.73
68197;BME280;55019;49.382;11.358;2023-03-04T10:11:22;97060.16;;;0.37;85.55
68197;BME280;55019;49.382;11.358;2023-03-04T10:19:37;97068.69;;;0.36;84.49
68197;BME280;55019;49.382;11.358;2023-03-04T10:22:16;97058.88;;;0.58;84.68
68197;BME280;55019;49.382;11.358;2023-03-04T10:24:44;97057.69;;;0.50;84.37
68197;BME280;55019;49.382;11.358;2023-03-04T10:27:12;97055.78;;;0.67;83.38
68197;BME280;55019;49.382;11.358;2023-03-04T10:29:39;97051.88;;;0.76;83.89
68197;BME280;55019;49.382;11.358;2023-03-04T10:32:10;97060.34;;;0.34;83.61
68197;BME280;55019;49.382;11.358;2023-03-04T10:34:36;97056.09;;;0.63;83.52
68197;BME280;55019;49.382;11.358;2023-03-04T10:37:04;97049.00;;;0.68;82.89
68197;BME280;55019;49.382;11.358;2023-03-04T10:39:43;97055.72;;;0.69;81.73
68197;BME280;55019;49.382;11.358;2023-03-04T10:44:42;97055.81;;;0.53;82.51
68197;BME280;55019;49.382;11.358;2023-03-04T10:47:09;97048.34;;;0.64;82.75
68197;BME280;55019;49.382;11.358;2023-03-04T10:49:53;97053.53;;;0.77;81.61
68197;BME280;55019;49.382;11.358;2023-03-04T10:55:05;97050.34;;;0.31;83.04
68197;BME280;55019;49.382;11.358;2023-03-04T10:57:37;97049.81;;;0.26;83.46
68197;BME280;55019;49.382;11.358;2023-03-04T11:02:42;97049.28;;;0.35;83.48
68197;BME280;55019;49.382;11.358;2023-03-04T11:10:37;97043.28;;;0.78;81.42
68197;BME280;55019;49.382;11.358;2023-03-04T11:16:22;97036.31;;;1.35;79.09
68197;BME280;55019;49.382;11.358;2023-03-04T11:18:55;97038.47;;;1.40;78.54
68197;BME280;55019;49.382;11.358;2023-03-04T11:21:26;97033.41;;;1.53;77.62
68197;BME280;55019;49.382;11.358;2023-03-04T11:23:59;97038.50;;;1.27;77.02
68197;BME280;55019;49.382;11.358;2023-03-04T11:26:48;97030.75;;;1.16;77.36
68197;BME280;55019;49.382;11.358;2023-03-04T11:29:25;97032.06;;;1.21;78.04
68197;BME280;55019;49.382;11.358;2023-03-04T11:34:43;97036.03;;;1.39;77.65
68197;BME280;55019;49.382;11.358;2023-03-04T11:43:13;97026.22;;;1.72;74.90
68197;BME280;55019;49.382;11.358;2023-03-04T11:54:29;97006.72;;;0.93;78.09
68197;BME280;55019;49.382;11.358;2023-03-04T12:08:25;96983.84;;;1.58;75.02
68197;BME280;55019;49.382;11.358;2023-03-04T12:11:25;96976.72;;;1.63;74.92
68197;BME280;55019;49.382;11.358;2023-03-04T12:20:01;96971.34;;;1.41;75.27
68197;BME280;55019;49.382;11.358;2023-03-04T12:22:35;96966.38;;;1.40;74.44
68197;BME280;55019;49.382;11.358;2023-03-04T12:39:38;96951.88;;;1.28;75.02
68197;BME280;55019;49.382;11.358;2023-03-04T12:42:20;96960.97;;;1.32;74.62
68197;BME280;55019;49.382;11.358;2023-03-04T12:45:01;96955.91;;;1.18;75.11
68197;BME280;55019;49.382;11.358;2023-03-04T12:50:41;96963.31;;;1.47;74.21
68197;BME280;55019;49.382;11.358;2023-03-04T12:53:34;96962.53;;;1.21;74.86
68197;BME280;55019;49.382;11.358;2023-03-04T12:56:03;96957.41;;;1.08;74.77
68197;BME280;55019;49.382;11.358;2023-03-04T12:58:31;96953.16;;;1.21;75.07
68197;BME280;55019;49.382;11.358;2023-03-04T13:06:27;96956.34;;;0.98;75.50
68197;BME280;55019;49.382;11.358;2023-03-04T13:09:03;96952.56;;;0.91;75.72
68197;BME280;55019;49.382;11.358;2023-03-04T13:11:41;96950.50;;;1.10;75.80
68197;BME280;55019;49.382;11.358;2023-03-04T13:16:48;96951.94;;;1.14;75.02
68197;BME280;55019;49.382;11.358;2023-03-04T13:41:17;96925.44;;;1.68;73.43
68197;BME280;55019;49.382;11.358;2023-03-04T13:43:52;96925.75;;;1.76;73.33
68197;BME280;55019;49.382;11.358;2023-03-04T13:51:18;96922.09;;;1.55;72.86
68197;BME280;55019;49.382;11.358;2023-03-04T13:53:55;96918.13;;;1.51;73.36
68197;BME280;55019;49.382;11.358;2023-03-04T13:56:30;96919.84;;;1.63;72.90
68197;BME280;55019;49.382;11.358;2023-03-04T14:04:35;96910.69;;;1.60;73.51
68197;BME280;55019;49.382;11.358;2023-03-04T14:07:15;96910.97;;;1.56;74.19
68197;BME280;55019;49.382;11.358;2023-03-04T14:10:18;96905.88;;;1.31;75.02
68197;BME280;55019;49.382;11.358;2023-03-04T14:17:39;96901.69;;;1.30;74.51
68197;BME280;55019;49.382;11.358;2023-03-04T14:20:30;96902.63;;;1.29;75.32
68197;BME280;55019;49.382;11.358;2023-03-04T14:22:59;96900.91;;;1.42;74.34
68197;BME280;55019;49.382;11.358;2023-03-04T14:25:31;96902.13;;;1.49;74.17
68197;BME280;55019;49.382;11.358;2023-03-04T14:28:13;96906.63;;;1.70;73.82
68197;BME280;55019;49.382;11.358;2023-03-04T14:30:40;96899.47;;;1.63;73.04
68197;BME280;55019;49.382;11.358;2023-03-04T14:33:08;96895.09;;;1.65;73.21
68197;BME280;55019;49.382;11.358;2023-03-04T14:35:37;96895.50;;;1.71;73.94
68197;BME280;55019;49.382;11.358;2023-03-04T14:38:15;96895.00;;;1.79;74.03
68197;BME280;55019;49.382;11.358;2023-03-04T14:40:47;96893.75;;;1.72;73.74
68197;BME280;55019;49.382;11.358;2023-03-04T14:43:20;96877.47;;;1.87;73.42
68197;BME280;55019;49.382;11.358;2023-03-04T14:45:54;96885.00;;;1.76;73.04
68197;BME280;55019;49.382;11.358;2023-03-04T14:48:26;96873.19;;;1.75;73.09
68197;BME280;55019;49.382;11.358;2023-03-04T14:50:54;96875.63;;;1.64;73.69
68197;BME280;55019;49.382;11.358;2023-03-04T14:53:22;96873.50;;;1.70;73.57
68197;BME280;55019;49.382;11.358;2023-03-04T14:58:32;96872.78;;;1.68;74.07
68197;BME280;55019;49.382;11.358;2023-03-04T15:01:07;96868.72;;;1.53;73.95
68197;BME280;55019;49.382;11.358;2023-03-04T15:03:37;96871.53;;;1.37;74.95
68197;BME280;55019;49.382;11.358;2023-03-04T15:06:19;96857.56;;;1.17;76.06
68197;BME280;55019;49.382;11.358;2023-03-04T15:08:46;96861.28;;;1.38;76.64
68197;BME280;55019;49.382;11.358;2023-03-04T15:11:22;96856.78;;;1.29;77.88
68197;BME280;55019;49.382;11.358;2023-03-04T15:13:51;96860.53;;;1.24;78.02